sensor_id;sensor_type;location;lat;lon;timestamp;P1;durP1;ratioP1;P2;durP2;ratioP2
65279;SDS011;51878;55.748;48.742;2022-10-16T00:01:15;4.65;;;2.58;;
65279;SDS011;51878;55.748;48.742;2022-10-16T00:03:44;4.75;;;2.53;;
65279;SDS011;51878;55.748;48.742;2022-10-16T00:06:12;4.97;;;2.30;;
65279;SDS011;51878;55.748;48.742;2022-10-16T00:08:40;3.75;;;2.70;;
65279;SDS011;51878;55.748;48.742;2022-10-16T00:11:09;6.43;;;2.70;;
65279;SDS011;51878;55.748;48.742;2022-10-16T00:13:44;5.88;;;2.70;;
65279;SDS011;51878;55.748;48.742;2022-10-16T00:16:13;4.13;;;2.83;;
65279;SDS011;51878;55.748;48.742;2022-10-16T00:18:40;3.25;;;2.22;;
65279;SDS011;51878;55.748;48.742;2022-10-16T00:21:12;7.10;;;2.70;;
65279;SDS011;51878;55.748;48.742;2022-10-16T00:24:01;9.77;;;2.85;;
65279;SDS011;51878;55.748;48.742;2022-10-16T00:26:33;9.00;;;2.97;;
65279;SDS011;51878;55.748;48.742;2022-10-16T00:29:01;4.22;;;2.85;;
65279;SDS011;51878;55.748;48.742;2022-10-16T00:31:29;4.78;;;2.80;;
65279;SDS011;51878;55.748;48.742;2022-10-16T00:33:56;3.75;;;2.88;;
65279;SDS011;51878;55.748;48.742;2022-10-16T00:36:24;3.85;;;2.90;;
65279;SDS011;51878;55.748;48.742;2022-10-16T00:38:53;4.97;;;3.20;;
65279;SDS011;51878;55.748;48.742;2022-10-16T00:41:22;5.57;;;2.97;;
65279;SDS011;51878;55.748;48.742;2022-10-16T00:43:58;4.47;;;2.97;;
65279;SDS011;51878;55.748;48.742;2022-10-16T00:51:43;4.45;;;2.70;;
65279;SDS011;51878;55.748;48.742;2022-10-16T00:54:14;4.88;;;3.10;;
65279;SDS011;51878;55.748;48.742;2022-10-16T00:56:44;4.60;;;2.97;;
65279;SDS011;51878;55.748;48.742;2022-10-16T00:59:15;7.18;;;2.80;;
65279;SDS011;51878;55.748;48.742;2022-10-16T01:01:47;4.50;;;3.20;;
65279;SDS011;51878;55.748;48.742;2022-10-16T01:04:14;4.15;;;2.97;;
65279;SDS011;51878;55.748;48.742;2022-10-16T01:07:03;6.10;;;3.55;;
65279;SDS011;51878;55.748;48.742;2022-10-16T01:09:57;4.82;;;3.10;;
65279;SDS011;51878;55.748;48.742;2022-10-16T01:12:45;4.57;;;3.20;;
65279;SDS011;51878;55.748;48.742;2022-10-16T01:15:36;4.85;;;2.95;;
65279;SDS011;51878;55.748;48.742;2022-10-16T01:29:25;4.85;;;3.15;;
65279;SDS011;51878;55.748;48.742;2022-10-16T01:32:05;4.78;;;3.38;;
65279;SDS011;51878;55.748;48.742;2022-10-16T01:34:43;5.43;;;3.53;;
65279;SDS011;51878;55.748;48.742;2022-10-16T01:37:15;4.80;;;3.38;;
65279;SDS011;51878;55.748;48.742;2022-10-16T01:39:47;4.90;;;3.70;;
65279;SDS011;51878;55.748;48.742;2022-10-16T01:42:28;5.82;;;3.85;;
65279;SDS011;51878;55.748;48.742;2022-10-16T01:45:01;8.48;;;3.70;;
65279;SDS011;51878;55.748;48.742;2022-10-16T01:47:29;4.70;;;3.33;;
65279;SDS011;51878;55.748;48.742;2022-10-16T01:49:58;6.78;;;3.35;;
65279;SDS011;51878;55.748;48.742;2022-10-16T01:52:28;4.90;;;3.38;;
65279;SDS011;51878;55.748;48.742;2022-10-16T01:54:56;5.65;;;3.70;;
65279;SDS011;51878;55.748;48.742;2022-10-16T01:57:26;9.07;;;4.00;;
65279;SDS011;51878;55.748;48.742;2022-10-16T01:59:54;6.25;;;3.92;;
65279;SDS011;51878;55.748;48.742;2022-10-16T02:02:26;5.32;;;3.60;;
65279;SDS011;51878;55.748;48.742;2022-10-16T02:04:57;6.00;;;3.75;;
65279;SDS011;51878;55.748;48.742;2022-10-16T02:07:28;7.32;;;4.38;;
65279;SDS011;51878;55.748;48.742;2022-10-16T02:09:56;7.07;;;3.65;;
65279;SDS011;51878;55.748;48.742;2022-10-16T02:12:26;5.55;;;3.50;;
65279;SDS011;51878;55.748;48.742;2022-10-16T02:14:57;4.93;;;4.00;;
65279;SDS011;51878;55.748;48.742;2022-10-16T02:17:24;6.43;;;3.88;;
65279;SDS011;51878;55.748;48.742;2022-10-16T02:19:52;6.38;;;3.40;;
65279;SDS011;51878;55.748;48.742;2022-10-16T02:22:30;4.35;;;3.40;;
65279;SDS011;51878;55.748;48.742;2022-10-16T02:25:01;5.05;;;3.78;;
65279;SDS011;51878;55.748;48.742;2022-10-16T02:27:33;7.33;;;3.63;;
65279;SDS011;51878;55.748;48.742;2022-10-16T02:32:46;6.60;;;3.90;;
65279;SDS011;51878;55.748;48.742;2022-10-16T02:35:16;4.97;;;3.45;;
65279;SDS011;51878;55.748;48.742;2022-10-16T02:37:45;6.50;;;3.90;;
65279;SDS011;51878;55.748;48.742;2022-10-16T02:40:14;7.90;;;3.95;;
65279;SDS011;51878;55.748;48.742;2022-10-16T02:42:43;10.57;;;4.20;;
65279;SDS011;51878;55.748;48.742;2022-10-16T02:45:11;6.35;;;3.92;;
65279;SDS011;51878;55.748;48.742;2022-10-16T02:47:38;5.85;;;4.05;;
65279;SDS011;51878;55.748;48.742;2022-10-16T02:50:05;7.00;;;3.80;;
65279;SDS011;51878;55.748;48.742;2022-10-16T02:52:33;6.90;;;4.38;;
65279;SDS011;51878;55.748;48.742;2022-10-16T02:55:00;8.85;;;4.05;;
65279;SDS011;51878;55.748;48.742;2022-10-16T02:57:28;6.32;;;4.10;;
65279;SDS011;51878;55.748;48.742;2022-10-16T02:59:55;6.28;;;4.00;;
65279;SDS011;51878;55.748;48.742;2022-10-16T03:02:23;5.90;;;3.88;;
65279;SDS011;51878;55.748;48.742;2022-10-16T03:04:50;6.63;;;3.67;;
65279;SDS011;51878;55.748;48.742;2022-10-16T03:07:17;7.68;;;3.83;;
65279;SDS011;51878;55.748;48.742;2022-10-16T03:09:44;4.70;;;3.72;;
65279;SDS011;51878;55.748;48.742;2022-10-16T03:12:11;7.18;;;3.58;;
65279;SDS011;51878;55.748;48.742;2022-10-16T03:14:38;7.50;;;3.67;;
65279;SDS011;51878;55.748;48.742;2022-10-16T03:17:06;7.35;;;3.78;;
65279;SDS011;51878;55.748;48.742;2022-10-16T03:19:33;6.47;;;4.50;;
65279;SDS011;51878;55.748;48.742;2022-10-16T03:22:01;5.68;;;3.97;;
65279;SDS011;51878;55.748;48.742;2022-10-16T03:24:28;6.07;;;3.58;;
65279;SDS011;51878;55.748;48.742;2022-10-16T03:26:55;5.72;;;3.65;;
65279;SDS011;51878;55.748;48.742;2022-10-16T03:29:22;5.70;;;4.00;;
65279;SDS011;51878;55.748;48.742;2022-10-16T03:31:49;4.63;;;3.63;;
65279;SDS011;51878;55.748;48.742;2022-10-16T03:34:16;4.40;;;3.25;;
65279;SDS011;51878;55.748;48.742;2022-10-16T03:36:43;7.97;;;3.70;;
65279;SDS011;51878;55.748;48.742;2022-10-16T03:39:10;16.05;;;3.80;;
65279;SDS011;51878;55.748;48.742;2022-10-16T03:41:37;4.78;;;3.30;;
65279;SDS011;51878;55.748;48.742;2022-10-16T03:44:04;3.95;;;3.15;;
65279;SDS011;51878;55.748;48.742;2022-10-16T03:46:31;7.20;;;3.55;;
65279;SDS011;51878;55.748;48.742;2022-10-16T03:48:58;4.82;;;3.10;;
65279;SDS011;51878;55.748;48.742;2022-10-16T03:51:25;5.63;;;3.08;;
65279;SDS011;51878;55.748;48.742;2022-10-16T03:53:52;4.82;;;3.00;;
65279;SDS011;51878;55.748;48.742;2022-10-16T03:56:19;5.38;;;3.67;;
65279;SDS011;51878;55.748;48.742;2022-10-16T03:58:46;4.85;;;3.20;;
65279;SDS011;51878;55.748;48.742;2022-10-16T04:01:13;4.30;;;3.05;;
65279;SDS011;51878;55.748;48.742;2022-10-16T04:03:40;4.10;;;3.40;;
65279;SDS011;51878;55.748;48.742;2022-10-16T04:06:07;5.15;;;3.38;;
65279;SDS011;51878;55.748;48.742;2022-10-16T04:08:35;6.22;;;3.10;;
65279;SDS011;51878;55.748;48.742;2022-10-16T04:11:03;3.83;;;2.92;;
65279;SDS011;51878;55.748;48.742;2022-10-16T04:13:30;4.15;;;2.88;;
65279;SDS011;51878;55.748;48.742;2022-10-16T04:15:57;5.45;;;2.90;;
65279;SDS011;51878;55.748;48.742;2022-10-16T04:18:24;5.38;;;2.97;;
65279;SDS011;51878;55.748;48.742;2022-10-16T04:20:53;5.38;;;2.92;;
65279;SDS011;51878;55.748;48.742;2022-10-16T04:23:21;4.47;;;2.80;;
65279;SDS011;51878;55.748;48.742;2022-10-16T04:25:49;4.30;;;2.92;;
65279;SDS011;51878;55.748;48.742;2022-10-16T04:28:17;4.70;;;3.10;;
65279;SDS011;51878;55.748;48.742;2022-10-16T04:30:44;4.05;;;2.70;;
65279;SDS011;51878;55.748;48.742;2022-10-16T04:33:11;4.20;;;3.00;;
65279;SDS011;51878;55.748;48.742;2022-10-16T04:35:39;5.82;;;3.00;;
65279;SDS011;51878;55.748;48.742;2022-10-16T04:38:06;3.88;;;2.90;;
65279;SDS011;51878;55.748;48.742;2022-10-16T04:40:33;7.57;;;3.17;;
65279;SDS011;51878;55.748;48.742;2022-10-16T04:43:03;6.03;;;3.72;;
65279;SDS011;51878;55.748;48.742;2022-10-16T04:45:30;4.82;;;2.97;;
65279;SDS011;51878;55.748;48.742;2022-10-16T04:47:58;6.75;;;3.25;;
65279;SDS011;51878;55.748;48.742;2022-10-16T04:50:26;3.90;;;2.75;;
65279;SDS011;51878;55.748;48.742;2022-10-16T04:52:53;8.98;;;3.35;;
65279;SDS011;51878;55.748;48.742;2022-10-16T04:55:19;4.10;;;2.90;;
65279;SDS011;51878;55.748;48.742;2022-10-16T04:57:47;4.78;;;2.90;;
65279;SDS011;51878;55.748;48.742;2022-10-16T05:00:14;5.90;;;3.30;;
65279;SDS011;51878;55.748;48.742;2022-10-16T05:02:41;6.72;;;3.63;;
65279;SDS011;51878;55.748;48.742;2022-10-16T05:05:08;5.55;;;3.25;;
65279;SDS011;51878;55.748;48.742;2022-10-16T05:07:35;6.97;;;2.90;;
65279;SDS011;51878;55.748;48.742;2022-10-16T05:10:02;6.28;;;3.17;;
65279;SDS011;51878;55.748;48.742;2022-10-16T05:12:29;8.63;;;3.45;;
65279;SDS011;51878;55.748;48.742;2022-10-16T05:14:56;4.32;;;3.13;;
65279;SDS011;51878;55.748;48.742;2022-10-16T05:17:25;10.68;;;3.13;;
65279;SDS011;51878;55.748;48.742;2022-10-16T05:19:52;8.00;;;3.95;;
65279;SDS011;51878;55.748;48.742;2022-10-16T05:22:19;4.78;;;3.30;;
65279;SDS011;51878;55.748;48.742;2022-10-16T05:24:46;5.18;;;3.00;;
65279;SDS011;51878;55.748;48.742;2022-10-16T05:27:13;5.60;;;3.05;;
65279;SDS011;51878;55.748;48.742;2022-10-16T05:29:47;4.55;;;2.63;;
65279;SDS011;51878;55.748;48.742;2022-10-16T05:32:15;4.90;;;2.90;;
65279;SDS011;51878;55.748;48.742;2022-10-16T05:34:44;4.00;;;2.78;;
65279;SDS011;51878;55.748;48.742;2022-10-16T05:37:11;8.23;;;3.25;;
65279;SDS011;51878;55.748;48.742;2022-10-16T05:39:39;5.07;;;3.35;;
65279;SDS011;51878;55.748;48.742;2022-10-16T05:42:06;4.70;;;3.13;;
65279;SDS011;51878;55.748;48.742;2022-10-16T05:44:33;4.90;;;2.88;;
65279;SDS011;51878;55.748;48.742;2022-10-16T05:47:00;5.85;;;3.20;;
65279;SDS011;51878;55.748;48.742;2022-10-16T05:49:27;4.25;;;2.90;;
65279;SDS011;51878;55.748;48.742;2022-10-16T05:51:54;8.70;;;2.85;;
65279;SDS011;51878;55.748;48.742;2022-10-16T05:54:25;7.03;;;3.10;;
65279;SDS011;51878;55.748;48.742;2022-10-16T05:56:52;6.88;;;3.30;;
65279;SDS011;51878;55.748;48.742;2022-10-16T05:59:19;6.65;;;3.15;;
65279;SDS011;51878;55.748;48.742;2022-10-16T06:01:46;4.03;;;3.00;;
65279;SDS011;51878;55.748;48.742;2022-10-16T06:04:13;4.68;;;2.65;;
65279;SDS011;51878;55.748;48.742;2022-10-16T06:06:40;4.22;;;2.85;;
65279;SDS011;51878;55.748;48.742;2022-10-16T06:09:07;5.43;;;2.90;;
65279;SDS011;51878;55.748;48.742;2022-10-16T06:11:35;5.75;;;3.25;;
65279;SDS011;51878;55.748;48.742;2022-10-16T06:14:03;6.88;;;3.30;;
65279;SDS011;51878;55.748;48.742;2022-10-16T06:16:34;5.57;;;3.25;;
65279;SDS011;51878;55.748;48.742;2022-10-16T06:19:02;5.20;;;2.95;;
65279;SDS011;51878;55.748;48.742;2022-10-16T06:21:32;4.25;;;2.95;;
65279;SDS011;51878;55.748;48.742;2022-10-16T06:23:59;5.47;;;3.45;;
65279;SDS011;51878;55.748;48.742;2022-10-16T06:26:27;12.07;;;3.25;;
65279;SDS011;51878;55.748;48.742;2022-10-16T06:28:56;5.30;;;3.38;;
65279;SDS011;51878;55.748;48.742;2022-10-16T06:31:25;5.10;;;3.17;;
65279;SDS011;51878;55.748;48.742;2022-10-16T06:33:54;7.72;;;3.45;;
65279;SDS011;51878;55.748;48.742;2022-10-16T06:36:21;18.42;;;3.70;;
65279;SDS011;51878;55.748;48.742;2022-10-16T06:38:49;6.75;;;3.28;;
65279;SDS011;51878;55.748;48.742;2022-10-16T06:41:17;6.50;;;3.65;;
65279;SDS011;51878;55.748;48.742;2022-10-16T06:43:46;5.88;;;3.70;;
65279;SDS011;51878;55.748;48.742;2022-10-16T06:46:15;10.05;;;4.10;;
65279;SDS011;51878;55.748;48.742;2022-10-16T06:48:44;5.22;;;3.65;;
65279;SDS011;51878;55.748;48.742;2022-10-16T06:51:12;7.53;;;3.97;;
65279;SDS011;51878;55.748;48.742;2022-10-16T06:53:42;7.45;;;3.92;;
65279;SDS011;51878;55.748;48.742;2022-10-16T06:56:27;6.80;;;3.53;;
65279;SDS011;51878;55.748;48.742;2022-10-16T06:58:57;9.50;;;3.72;;
65279;SDS011;51878;55.748;48.742;2022-10-16T07:01:25;9.73;;;3.90;;
65279;SDS011;51878;55.748;48.742;2022-10-16T07:03:52;13.13;;;4.65;;
65279;SDS011;51878;55.748;48.742;2022-10-16T07:06:21;8.80;;;3.80;;
65279;SDS011;51878;55.748;48.742;2022-10-16T07:08:50;7.22;;;3.80;;
65279;SDS011;51878;55.748;48.742;2022-10-16T07:11:18;9.05;;;3.80;;
65279;SDS011;51878;55.748;48.742;2022-10-16T07:13:47;6.05;;;3.70;;
65279;SDS011;51878;55.748;48.742;2022-10-16T07:16:18;8.98;;;3.95;;
65279;SDS011;51878;55.748;48.742;2022-10-16T07:18:46;5.57;;;3.90;;
65279;SDS011;51878;55.748;48.742;2022-10-16T07:21:15;5.57;;;3.88;;
65279;SDS011;51878;55.748;48.742;2022-10-16T07:23:44;6.63;;;3.88;;
65279;SDS011;51878;55.748;48.742;2022-10-16T07:26:11;5.78;;;3.40;;
65279;SDS011;51878;55.748;48.742;2022-10-16T07:28:38;5.78;;;3.63;;
65279;SDS011;51878;55.748;48.742;2022-10-16T07:31:08;7.65;;;3.80;;
65279;SDS011;51878;55.748;48.742;2022-10-16T07:33:42;7.25;;;3.90;;
65279;SDS011;51878;55.748;48.742;2022-10-16T07:36:11;9.65;;;3.92;;
65279;SDS011;51878;55.748;48.742;2022-10-16T07:38:41;4.32;;;3.13;;
65279;SDS011;51878;55.748;48.742;2022-10-16T07:41:10;4.55;;;3.50;;
65279;SDS011;51878;55.748;48.742;2022-10-16T07:43:39;7.18;;;3.58;;
65279;SDS011;51878;55.748;48.742;2022-10-16T07:46:06;7.35;;;3.80;;
65279;SDS011;51878;55.748;48.742;2022-10-16T07:48:34;6.03;;;3.78;;
65279;SDS011;51878;55.748;48.742;2022-10-16T07:51:03;4.63;;;3.30;;
65279;SDS011;51878;55.748;48.742;2022-10-16T07:53:32;6.68;;;4.07;;
65279;SDS011;51878;55.748;48.742;2022-10-16T07:56:00;6.70;;;3.50;;
65279;SDS011;51878;55.748;48.742;2022-10-16T07:58:29;5.00;;;3.55;;
65279;SDS011;51878;55.748;48.742;2022-10-16T08:00:56;5.53;;;3.38;;
65279;SDS011;51878;55.748;48.742;2022-10-16T08:03:24;5.50;;;3.40;;
65279;SDS011;51878;55.748;48.742;2022-10-16T08:05:52;8.77;;;3.53;;
65279;SDS011;51878;55.748;48.742;2022-10-16T08:08:19;6.10;;;3.72;;
65279;SDS011;51878;55.748;48.742;2022-10-16T08:10:46;6.15;;;3.55;;
65279;SDS011;51878;55.748;48.742;2022-10-16T08:13:13;6.25;;;3.60;;
65279;SDS011;51878;55.748;48.742;2022-10-16T08:15:42;6.63;;;3.65;;
65279;SDS011;51878;55.748;48.742;2022-10-16T08:18:10;4.78;;;3.65;;
65279;SDS011;51878;55.748;48.742;2022-10-16T08:20:38;6.55;;;3.45;;
65279;SDS011;51878;55.748;48.742;2022-10-16T08:23:06;5.75;;;3.65;;
65279;SDS011;51878;55.748;48.742;2022-10-16T08:25:36;9.05;;;3.47;;
65279;SDS011;51878;55.748;48.742;2022-10-16T08:28:04;6.57;;;3.97;;
65279;SDS011;51878;55.748;48.742;2022-10-16T08:30:32;13.57;;;3.88;;
65279;SDS011;51878;55.748;48.742;2022-10-16T08:33:00;8.93;;;4.05;;
65279;SDS011;51878;55.748;48.742;2022-10-16T08:35:27;9.85;;;3.63;;
65279;SDS011;51878;55.748;48.742;2022-10-16T08:37:54;8.68;;;3.40;;
65279;SDS011;51878;55.748;48.742;2022-10-16T08:40:26;6.95;;;3.70;;
65279;SDS011;51878;55.748;48.742;2022-10-16T08:43:10;5.82;;;3.63;;
65279;SDS011;51878;55.748;48.742;2022-10-16T08:48:41;7.65;;;3.50;;
65279;SDS011;51878;55.748;48.742;2022-10-16T08:51:18;5.22;;;3.28;;
65279;SDS011;51878;55.748;48.742;2022-10-16T08:53:52;4.63;;;3.10;;
65279;SDS011;51878;55.748;48.742;2022-10-16T08:56:22;4.68;;;3.45;;
65279;SDS011;51878;55.748;48.742;2022-10-16T08:58:51;7.80;;;3.35;;
65279;SDS011;51878;55.748;48.742;2022-10-16T09:01:22;7.05;;;3.80;;
65279;SDS011;51878;55.748;48.742;2022-10-16T09:09:34;5.65;;;3.50;;
65279;SDS011;51878;55.748;48.742;2022-10-16T09:20:53;4.82;;;3.45;;
65279;SDS011;51878;55.748;48.742;2022-10-16T09:23:27;10.82;;;3.85;;
65279;SDS011;51878;55.748;48.742;2022-10-16T09:26:00;7.65;;;3.47;;
65279;SDS011;51878;55.748;48.742;2022-10-16T09:28:29;7.15;;;4.10;;
65279;SDS011;51878;55.748;48.742;2022-10-16T09:30:56;8.07;;;4.18;;
65279;SDS011;51878;55.748;48.742;2022-10-16T09:33:25;6.85;;;3.78;;
65279;SDS011;51878;55.748;48.742;2022-10-16T09:36:02;6.95;;;4.00;;
65279;SDS011;51878;55.748;48.742;2022-10-16T09:38:33;7.45;;;4.15;;
65279;SDS011;51878;55.748;48.742;2022-10-16T09:41:03;6.65;;;3.92;;
65279;SDS011;51878;55.748;48.742;2022-10-16T09:46:36;6.78;;;3.55;;
65279;SDS011;51878;55.748;48.742;2022-10-16T09:49:05;5.60;;;3.80;;
65279;SDS011;51878;55.748;48.742;2022-10-16T09:52:12;9.40;;;3.70;;
65279;SDS011;51878;55.748;48.742;2022-10-16T09:57:29;9.73;;;3.63;;
65279;SDS011;51878;55.748;48.742;2022-10-16T09:59:57;5.88;;;3.80;;
65279;SDS011;51878;55.748;48.742;2022-10-16T10:02:35;7.00;;;4.18;;
65279;SDS011;51878;55.748;48.742;2022-10-16T10:07:54;11.88;;;4.47;;
65279;SDS011;51878;55.748;48.742;2022-10-16T10:10:27;6.80;;;3.83;;
65279;SDS011;51878;55.748;48.742;2022-10-16T10:12:56;9.05;;;4.90;;
65279;SDS011;51878;55.748;48.742;2022-10-16T10:15:24;7.90;;;4.15;;
65279;SDS011;51878;55.748;48.742;2022-10-16T10:17:55;5.90;;;3.60;;
65279;SDS011;51878;55.748;48.742;2022-10-16T10:22:55;5.18;;;3.47;;
65279;SDS011;51878;55.748;48.742;2022-10-16T10:30:55;5.75;;;3.45;;
65279;SDS011;51878;55.748;48.742;2022-10-16T10:39:04;6.43;;;3.50;;
65279;SDS011;51878;55.748;48.742;2022-10-16T10:44:49;4.80;;;3.65;;
65279;SDS011;51878;55.748;48.742;2022-10-16T10:51:28;7.50;;;3.90;;
65279;SDS011;51878;55.748;48.742;2022-10-16T11:05:27;6.03;;;3.90;;
65279;SDS011;51878;55.748;48.742;2022-10-16T11:10:49;8.02;;;3.92;;
65279;SDS011;51878;55.748;48.742;2022-10-16T11:16:02;6.18;;;3.90;;
65279;SDS011;51878;55.748;48.742;2022-10-16T11:18:56;8.02;;;4.25;;
65279;SDS011;51878;55.748;48.742;2022-10-16T11:21:40;8.40;;;4.15;;
65279;SDS011;51878;55.748;48.742;2022-10-16T11:24:18;7.10;;;3.67;;
65279;SDS011;51878;55.748;48.742;2022-10-16T11:26:49;7.50;;;3.83;;
65279;SDS011;51878;55.748;48.742;2022-10-16T11:29:23;4.63;;;3.22;;
65279;SDS011;51878;55.748;48.742;2022-10-16T11:32:05;8.95;;;3.38;;
65279;SDS011;51878;55.748;48.742;2022-10-16T11:34:43;8.00;;;3.60;;
65279;SDS011;51878;55.748;48.742;2022-10-16T11:39:43;6.63;;;3.10;;
65279;SDS011;51878;55.748;48.742;2022-10-16T11:42:16;5.18;;;3.03;;
65279;SDS011;51878;55.748;48.742;2022-10-16T11:50:42;8.30;;;3.60;;
65279;SDS011;51878;55.748;48.742;2022-10-16T11:55:51;6.15;;;3.65;;
65279;SDS011;51878;55.748;48.742;2022-10-16T12:03:50;7.32;;;3.10;;
65279;SDS011;51878;55.748;48.742;2022-10-16T12:09:04;5.63;;;3.05;;
65279;SDS011;51878;55.748;48.742;2022-10-16T12:11:34;8.57;;;3.63;;
65279;SDS011;51878;55.748;48.742;2022-10-16T12:14:06;6.03;;;3.75;;
65279;SDS011;51878;55.748;48.742;2022-10-16T12:16:55;8.32;;;3.00;;
65279;SDS011;51878;55.748;48.742;2022-10-16T12:19:25;8.05;;;3.75;;
65279;SDS011;51878;55.748;48.742;2022-10-16T12:21:58;5.35;;;3.00;;
65279;SDS011;51878;55.748;48.742;2022-10-16T12:24:37;6.85;;;3.17;;
65279;SDS011;51878;55.748;48.742;2022-10-16T12:27:27;6.70;;;2.95;;
65279;SDS011;51878;55.748;48.742;2022-10-16T12:30:00;7.75;;;3.63;;
65279;SDS011;51878;55.748;48.742;2022-10-16T12:32:31;5.63;;;2.88;;
65279;SDS011;51878;55.748;48.742;2022-10-16T12:35:18;4.82;;;2.60;;
65279;SDS011;51878;55.748;48.742;2022-10-16T12:37:54;6.03;;;3.03;;
65279;SDS011;51878;55.748;48.742;2022-10-16T12:40:46;7.18;;;3.38;;
65279;SDS011;51878;55.748;48.742;2022-10-16T12:43:25;6.18;;;2.72;;
65279;SDS011;51878;55.748;48.742;2022-10-16T12:48:37;8.27;;;3.13;;
65279;SDS011;51878;55.748;48.742;2022-10-16T12:53:46;6.47;;;3.30;;
65279;SDS011;51878;55.748;48.742;2022-10-16T12:56:48;6.15;;;2.80;;
65279;SDS011;51878;55.748;48.742;2022-10-16T13:02:35;4.43;;;2.33;;
65279;SDS011;51878;55.748;48.742;2022-10-16T13:17:06;12.32;;;3.45;;
65279;SDS011;51878;55.748;48.742;2022-10-16T13:20:31;16.05;;;3.10;;
65279;SDS011;51878;55.748;48.742;2022-10-16T13:26:40;5.88;;;2.60;;
65279;SDS011;51878;55.748;48.742;2022-10-16T13:29:18;5.85;;;2.50;;
65279;SDS011;51878;55.748;48.742;2022-10-16T13:31:46;3.95;;;2.05;;
65279;SDS011;51878;55.748;48.742;2022-10-16T13:34:17;5.45;;;2.35;;
65279;SDS011;51878;55.748;48.742;2022-10-16T13:36:50;5.93;;;2.22;;
65279;SDS011;51878;55.748;48.742;2022-10-16T13:39:23;4.40;;;2.53;;
65279;SDS011;51878;55.748;48.742;2022-10-16T13:42:04;13.55;;;4.47;;
65279;SDS011;51878;55.748;48.742;2022-10-16T13:44:43;5.00;;;2.40;;
65279;SDS011;51878;55.748;48.742;2022-10-16T13:47:20;8.73;;;2.60;;
65279;SDS011;51878;55.748;48.742;2022-10-16T13:50:05;5.60;;;2.85;;
65279;SDS011;51878;55.748;48.742;2022-10-16T13:52:41;5.25;;;2.55;;
65279;SDS011;51878;55.748;48.742;2022-10-16T13:55:34;5.93;;;2.90;;
65279;SDS011;51878;55.748;48.742;2022-10-16T13:58:26;7.97;;;2.67;;
65279;SDS011;51878;55.748;48.742;2022-10-16T14:01:04;5.60;;;2.97;;
65279;SDS011;51878;55.748;48.742;2022-10-16T14:03:41;2.92;;;2.33;;
65279;SDS011;51878;55.748;48.742;2022-10-16T14:06:12;6.13;;;2.67;;
65279;SDS011;51878;55.748;48.742;2022-10-16T14:11:44;5.45;;;2.80;;
65279;SDS011;51878;55.748;48.742;2022-10-16T14:14:15;5.93;;;3.00;;
65279;SDS011;51878;55.748;48.742;2022-10-16T14:16:45;5.68;;;3.22;;
65279;SDS011;51878;55.748;48.742;2022-10-16T14:19:15;5.13;;;3.00;;
65279;SDS011;51878;55.748;48.742;2022-10-16T14:21:46;4.43;;;2.70;;
65279;SDS011;51878;55.748;48.742;2022-10-16T14:24:22;5.45;;;2.95;;
65279;SDS011;51878;55.748;48.742;2022-10-16T14:26:57;6.70;;;2.60;;
65279;SDS011;51878;55.748;48.742;2022-10-16T14:29:28;8.30;;;2.78;;
65279;SDS011;51878;55.748;48.742;2022-10-16T14:31:59;5.88;;;2.83;;
65279;SDS011;51878;55.748;48.742;2022-10-16T14:34:30;6.93;;;2.72;;
65279;SDS011;51878;55.748;48.742;2022-10-16T14:37:08;7.72;;;2.90;;
65279;SDS011;51878;55.748;48.742;2022-10-16T14:39:48;5.57;;;2.25;;
65279;SDS011;51878;55.748;48.742;2022-10-16T14:42:16;5.53;;;2.58;;
65279;SDS011;51878;55.748;48.742;2022-10-16T14:44:46;7.45;;;2.75;;
65279;SDS011;51878;55.748;48.742;2022-10-16T14:47:15;6.32;;;2.50;;
65279;SDS011;51878;55.748;48.742;2022-10-16T14:49:48;6.13;;;2.58;;
65279;SDS011;51878;55.748;48.742;2022-10-16T14:52:15;9.23;;;2.30;;
65279;SDS011;51878;55.748;48.742;2022-10-16T14:54:42;6.53;;;2.80;;
65279;SDS011;51878;55.748;48.742;2022-10-16T14:57:19;8.20;;;2.95;;
65279;SDS011;51878;55.748;48.742;2022-10-16T14:59:50;4.32;;;2.72;;
65279;SDS011;51878;55.748;48.742;2022-10-16T15:04:47;7.32;;;3.40;;
65279;SDS011;51878;55.748;48.742;2022-10-16T15:07:15;5.10;;;3.33;;
65279;SDS011;51878;55.748;48.742;2022-10-16T15:09:42;5.90;;;3.38;;
65279;SDS011;51878;55.748;48.742;2022-10-16T15:12:14;6.03;;;3.55;;
65279;SDS011;51878;55.748;48.742;2022-10-16T15:14:42;5.88;;;3.50;;
65279;SDS011;51878;55.748;48.742;2022-10-16T15:17:09;4.70;;;3.30;;
65279;SDS011;51878;55.748;48.742;2022-10-16T15:19:37;8.25;;;3.30;;
65279;SDS011;51878;55.748;48.742;2022-10-16T15:22:05;6.07;;;3.50;;
65279;SDS011;51878;55.748;48.742;2022-10-16T15:24:31;5.88;;;2.65;;
65279;SDS011;51878;55.748;48.742;2022-10-16T15:26:59;4.68;;;2.88;;
65279;SDS011;51878;55.748;48.742;2022-10-16T15:29:26;5.63;;;2.97;;
65279;SDS011;51878;55.748;48.742;2022-10-16T15:31:52;4.53;;;3.03;;
65279;SDS011;51878;55.748;48.742;2022-10-16T15:34:20;4.45;;;2.70;;
65279;SDS011;51878;55.748;48.742;2022-10-16T15:36:47;4.18;;;2.92;;
65279;SDS011;51878;55.748;48.742;2022-10-16T15:39:17;4.28;;;3.03;;
65279;SDS011;51878;55.748;48.742;2022-10-16T15:41:48;4.13;;;3.00;;
65279;SDS011;51878;55.748;48.742;2022-10-16T15:44:19;5.97;;;2.55;;
65279;SDS011;51878;55.748;48.742;2022-10-16T15:46:50;6.57;;;3.05;;
65279;SDS011;51878;55.748;48.742;2022-10-16T15:49:17;3.92;;;2.47;;
65279;SDS011;51878;55.748;48.742;2022-10-16T15:51:44;5.03;;;2.80;;
65279;SDS011;51878;55.748;48.742;2022-10-16T15:54:12;4.43;;;3.00;;
65279;SDS011;51878;55.748;48.742;2022-10-16T15:56:39;6.43;;;2.80;;
65279;SDS011;51878;55.748;48.742;2022-10-16T15:59:06;5.30;;;2.88;;
65279;SDS011;51878;55.748;48.742;2022-10-16T16:01:34;8.07;;;3.33;;
65279;SDS011;51878;55.748;48.742;2022-10-16T16:04:02;5.20;;;2.90;;
65279;SDS011;51878;55.748;48.742;2022-10-16T16:06:36;4.03;;;3.00;;
65279;SDS011;51878;55.748;48.742;2022-10-16T16:09:13;7.53;;;2.72;;
65279;SDS011;51878;55.748;48.742;2022-10-16T16:11:41;9.35;;;2.95;;
65279;SDS011;51878;55.748;48.742;2022-10-16T16:14:11;5.90;;;3.40;;
65279;SDS011;51878;55.748;48.742;2022-10-16T16:16:40;5.63;;;3.03;;
65279;SDS011;51878;55.748;48.742;2022-10-16T16:19:08;5.50;;;3.75;;
65279;SDS011;51878;55.748;48.742;2022-10-16T16:21:36;6.22;;;2.85;;
65279;SDS011;51878;55.748;48.742;2022-10-16T16:24:03;5.93;;;3.10;;
65279;SDS011;51878;55.748;48.742;2022-10-16T16:26:35;4.82;;;3.25;;
65279;SDS011;51878;55.748;48.742;2022-10-16T16:29:06;6.75;;;3.40;;
65279;SDS011;51878;55.748;48.742;2022-10-16T16:31:33;4.90;;;3.42;;
65279;SDS011;51878;55.748;48.742;2022-10-16T16:34:01;7.13;;;3.67;;
65279;SDS011;51878;55.748;48.742;2022-10-16T16:36:29;5.93;;;3.88;;
65279;SDS011;51878;55.748;48.742;2022-10-16T16:38:57;7.07;;;3.58;;
65279;SDS011;51878;55.748;48.742;2022-10-16T16:41:25;6.63;;;3.40;;
65279;SDS011;51878;55.748;48.742;2022-10-16T16:43:54;4.30;;;3.25;;
65279;SDS011;51878;55.748;48.742;2022-10-16T16:46:21;6.20;;;3.80;;
65279;SDS011;51878;55.748;48.742;2022-10-16T16:48:49;7.22;;;3.50;;
65279;SDS011;51878;55.748;48.742;2022-10-16T16:51:17;5.68;;;3.13;;
65279;SDS011;51878;55.748;48.742;2022-10-16T16:53:47;6.63;;;3.55;;
65279;SDS011;51878;55.748;48.742;2022-10-16T16:56:16;5.47;;;3.28;;
65279;SDS011;51878;55.748;48.742;2022-10-16T16:58:47;7.57;;;3.40;;
65279;SDS011;51878;55.748;48.742;2022-10-16T17:01:15;9.48;;;3.20;;
65279;SDS011;51878;55.748;48.742;2022-10-16T17:03:47;5.38;;;3.33;;
65279;SDS011;51878;55.748;48.742;2022-10-16T17:06:16;7.45;;;3.58;;